Time;durP1;ratioP1;P1;durP2;ratioP2;P2;SDS_P1;SDS_P2;PMS_P1;PMS_P2;Temp;Humidity;BMP_temperature;BMP_pressure;BME280_temperature;BME280_humidity;BME280_pressure;Samples;Min_cycle;Max_cycle;Signal;HPM_P1;HPM_P2
2022/03/04 00:01:37;;;;;;;18.92;16.38;;;11.00;56.20;;;;;;5094890;28;20115;-61
2022/03/04 00:04:03;;;;;;;17.00;14.00;;;11.00;56.20;;;;;;5094730;28;20031;-61
2022/03/04 00:06:28;;;;;;;19.95;15.80;;;11.00;56.40;;;;;;5094656;28;20043;-63
2022/03/04 00:08:54;;;;;;;19.02;14.43;;;11.00;56.30;;;;;;5094701;28;20047;-62
2022/03/04 00:11:20;;;;;;;17.38;14.50;;;11.00;56.20;;;;;;5094509;28;20043;-61
2022/03/04 00:13:46;;;;;;;18.60;13.82;;;10.90;56.30;;;;;;5076207;28;20388;-61
2022/03/04 00:16:12;;;;;;;17.63;13.75;;;10.90;56.30;;;;;;5094307;28;20027;-62
2022/03/04 00:18:37;;;;;;;20.45;14.18;;;10.90;56.40;;;;;;5094565;28;20024;-62
2022/03/04 00:21:03;;;;;;;15.77;14.07;;;10.90;56.60;;;;;;5094477;28;20034;-62
2022/03/04 00:23:29;;;;;;;17.40;14.43;;;10.80;56.40;;;;;;5094342;28;20099;-62
2022/03/04 00:25:55;;;;;;;16.58;14.60;;;10.80;56.50;;;;;;5094299;28;20107;-61
2022/03/04 00:28:20;;;;;;;15.95;13.55;;;10.80;56.60;;;;;;5094141;28;20125;-62
2022/03/04 00:30:46;;;;;;;19.08;13.10;;;10.80;56.50;;;;;;5093575;28;20051;-72
2022/03/04 00:33:11;;;;;;;14.68;12.90;;;10.70;56.60;;;;;;5094259;28;20024;-67
2022/03/04 00:35:37;;;;;;;16.48;13.57;;;10.70;56.70;;;;;;5093730;28;20032;-64
2022/03/04 00:38:02;;;;;;;15.98;14.27;;;10.70;56.70;;;;;;5094189;28;20499;-70
2022/03/04 00:40:28;;;;;;;18.38;14.80;;;10.70;56.70;;;;;;5093989;28;20020;-67
2022/03/04 00:42:54;;;;;;;17.95;15.15;;;10.70;56.70;;;;;;5093678;28;20028;-68
2022/03/04 00:45:19;;;;;;;18.70;14.88;;;10.70;56.90;;;;;;5093927;28;20113;-68
2022/03/04 00:47:45;;;;;;;16.70;13.57;;;10.70;56.90;;;;;;5093763;28;20032;-66
2022/03/04 00:50:10;;;;;;;16.67;13.93;;;10.60;57.00;;;;;;5093864;28;20031;-65
2022/03/04 00:52:36;;;;;;;18.90;14.82;;;10.60;57.10;;;;;;5093765;28;20016;-65
2022/03/04 00:55:03;;;;;;;18.08;15.40;;;10.60;57.00;;;;;;5093819;28;20150;-68
2022/03/04 00:57:29;;;;;;;16.55;14.40;;;10.60;57.10;;;;;;5093433;28;20502;-63
2022/03/04 00:59:54;;;;;;;23.67;14.68;;;10.60;57.10;;;;;;5075785;28;20020;-61
2022/03/04 01:02:20;;;;;;;16.70;14.25;;;10.60;57.20;;;;;;5093662;28;20035;-66
2022/03/04 01:04:46;;;;;;;16.02;13.60;;;10.50;57.30;;;;;;5093878;28;20028;-61
2022/03/04 01:07:11;;;;;;;17.67;14.63;;;10.50;57.20;;;;;;5093389;28;20201;-62
2022/03/04 01:09:37;;;;;;;15.93;13.63;;;10.50;57.40;;;;;;5093756;28;20032;-60
2022/03/04 01:12:04;;;;;;;17.50;14.68;;;10.50;57.40;;;;;;5093162;28;20042;-64
2022/03/04 01:14:30;;;;;;;20.33;15.48;;;10.40;57.40;;;;;;5093373;28;20027;-64
2022/03/04 01:16:55;;;;;;;20.33;14.52;;;10.40;57.40;;;;;;5093335;28;20369;-61
2022/03/04 01:19:21;;;;;;;19.67;16.23;;;10.40;57.40;;;;;;5093495;28;20028;-69
2022/03/04 01:21:46;;;;;;;21.15;16.30;;;10.40;57.40;;;;;;5093282;28;20499;-65
2022/03/04 01:24:12;;;;;;;17.83;15.52;;;10.30;57.40;;;;;;5093377;28;20020;-65
2022/03/04 01:26:37;;;;;;;20.58;16.15;;;10.30;57.30;;;;;;5092813;28;20030;-67
2022/03/04 01:29:03;;;;;;;18.40;15.75;;;10.30;57.40;;;;;;5093242;28;20077;-69
2022/03/04 01:31:29;;;;;;;19.85;15.80;;;10.30;57.30;;;;;;5093246;28;20028;-70
2022/03/04 01:33:54;;;;;;;20.45;15.93;;;10.30;57.30;;;;;;5093216;28;20028;-69
2022/03/04 01:36:20;;;;;;;17.63;15.20;;;10.20;57.40;;;;;;5092910;28;20032;-68
2022/03/04 01:38:46;;;;;;;18.95;16.08;;;10.20;57.50;;;;;;5093267;28;20107;-69
2022/03/04 01:41:11;;;;;;;19.17;15.57;;;10.20;57.50;;;;;;5092471;28;20051;-69
2022/03/04 01:43:37;;;;;;;23.55;15.88;;;10.10;57.50;;;;;;5075117;28;20530;-70
2022/03/04 01:46:12;;;;;;;21.38;16.45;;;10.10;57.60;;;;;;5093008;28;20016;-68
2022/03/04 01:48:38;;;;;;;18.95;15.40;;;10.10;57.70;;;;;;5093080;28;20032;-68
2022/03/04 01:51:04;;;;;;;20.55;16.52;;;10.10;57.70;;;;;;5093123;28;20453;-66
2022/03/04 01:53:30;;;;;;;20.05;16.27;;;10.00;57.70;;;;;;5092980;28;20027;-69
2022/03/04 01:55:55;;;;;;;17.90;16.08;;;10.00;57.80;;;;;;5074779;28;20027;-66
2022/03/04 01:58:21;;;;;;;19.00;15.73;;;10.00;57.80;;;;;;5092782;28;20032;-69
2022/03/04 02:00:46;;;;;;;24.48;15.30;;;10.00;57.80;;;;;;5092937;28;20499;-63
2022/03/04 02:03:12;;;;;;;18.35;16.17;;;10.00;57.90;;;;;;5092735;28;20027;-65
2022/03/04 02:05:37;;;;;;;19.00;15.82;;;10.00;57.90;;;;;;5093002;28;20052;-68
2022/03/04 02:08:03;;;;;;;18.23;15.27;;;9.90;57.90;;;;;;5092883;28;20377;-69
2022/03/04 02:10:29;;;;;;;21.63;15.50;;;9.90;57.90;;;;;;5092714;28;20461;-68
2022/03/04 02:12:54;;;;;;;18.77;15.85;;;9.90;58.00;;;;;;5092496;28;20024;-67
2022/03/04 02:15:20;;;;;;;18.48;15.77;;;9.80;58.10;;;;;;5092909;28;20028;-68
2022/03/04 02:17:46;;;;;;;23.48;15.48;;;9.80;58.10;;;;;;5092929;28;20096;-66
2022/03/04 02:20:11;;;;;;;20.10;15.93;;;9.80;58.10;;;;;;5092999;28;20032;-66
2022/03/04 02:22:37;;;;;;;20.23;15.88;;;9.70;58.10;;;;;;5092493;28;20024;-66
2022/03/04 02:25:05;;;;;;;19.77;16.42;;;9.70;58.10;;;;;;5092478;28;20069;-69
2022/03/04 02:27:32;;;;;;;21.00;16.45;;;9.60;58.10;;;;;;5092541;28;20024;-66
2022/03/04 02:29:57;;;;;;;19.65;15.65;;;9.60;58.50;;;;;;5092967;28;20032;-67
2022/03/04 02:32:23;;;;;;;19.50;15.60;;;9.60;58.30;;;;;;5092473;28;20457;-67
2022/03/04 02:34:48;;;;;;;21.65;17.10;;;9.60;58.30;;;;;;5092571;28;20039;-68
2022/03/04 02:37:14;;;;;;;18.65;15.80;;;9.60;58.40;;;;;;5092707;28;20028;-62
2022/03/04 02:39:40;;;;;;;18.77;16.17;;;9.60;58.50;;;;;;5092331;28;20027;-68
2022/03/04 02:42:05;;;;;;;20.20;16.73;;;9.60;58.40;;;;;;5092702;28;20020;-64
2022/03/04 02:44:31;;;;;;;20.73;15.85;;;9.50;58.40;;;;;;5092235;28;20031;-69
2022/03/04 02:46:56;;;;;;;18.65;15.95;;;9.40;58.60;;;;;;5092889;28;20016;-69
2022/03/04 02:49:22;;;;;;;19.75;16.95;;;9.40;58.70;;;;;;5092370;28;20086;-64
2022/03/04 02:51:48;;;;;;;19.15;15.60;;;9.40;58.70;;;;;;5085410;28;20024;-69
2022/03/04 02:54:13;;;;;;;22.30;17.20;;;9.30;58.90;;;;;;5093704;28;20028;-70
2022/03/04 02:56:39;;;;;;;20.75;15.85;;;9.40;58.70;;;;;;5095512;28;20057;-65
2022/03/04 02:59:04;;;;;;;18.95;16.08;;;9.30;58.70;;;;;;5095991;28;20073;-69
2022/03/04 03:01:30;;;;;;;20.23;16.70;;;9.30;58.90;;;;;;5095991;28;20034;-69
2022/03/04 03:03:55;;;;;;;18.33;15.48;;;9.30;58.80;;;;;;5077621;28;20020;-69
2022/03/04 03:06:21;;;;;;;19.60;15.93;;;9.30;58.60;;;;;;5095943;28;20028;-69
2022/03/04 03:08:46;;;;;;;18.05;15.98;;;9.30;58.80;;;;;;5095364;28;20121;-70
2022/03/04 03:11:12;;;;;;;18.73;16.73;;;9.20;58.80;;;;;;5095995;28;20469;-69
2022/03/04 03:13:38;;;;;;;19.67;15.55;;;9.20;58.80;;;;;;5095551;28;20468;-66
2022/03/04 03:16:03;;;;;;;20.23;16.95;;;9.20;58.80;;;;;;5095794;28;20468;-67
2022/03/04 03:18:29;;;;;;;19.58;16.60;;;9.20;58.90;;;;;;5095694;28;20081;-68
2022/03/04 03:20:55;;;;;;;20.70;16.20;;;9.10;59.50;;;;;;5095713;28;20487;-66
2022/03/04 03:23:20;;;;;;;20.17;15.57;;;9.20;58.90;;;;;;5095330;28;20070;-69
2022/03/04 03:25:46;;;;;;;18.92;16.17;;;9.20;58.70;;;;;;5095460;28;20038;-69
2022/03/04 03:28:11;;;;;;;20.35;16.00;;;9.10;58.80;;;;;;5095521;28;20036;-65
2022/03/04 03:30:37;;;;;;;22.48;16.45;;;9.10;58.80;;;;;;5095332;28;20483;-62
2022/03/04 03:33:03;;;;;;;18.40;16.25;;;9.20;58.70;;;;;;5095281;28;20027;-69
2022/03/04 03:35:28;;;;;;;21.50;16.27;;;9.20;58.70;;;;;;5095067;28;20038;-69
2022/03/04 03:37:54;;;;;;;17.27;14.77;;;9.20;58.70;;;;;;5095144;28;20032;-69
2022/03/04 03:40:19;;;;;;;18.50;16.25;;;9.10;58.80;;;;;;5095290;28;20019;-64
2022/03/04 03:42:45;;;;;;;19.33;16.30;;;9.00;59.60;;;;;;5095089;28;20039;-69
2022/03/04 03:45:12;;;;;;;20.55;15.93;;;9.00;59.00;;;;;;5095178;28;20027;-68
2022/03/04 03:47:39;;;;;;;22.00;15.98;;;9.00;59.00;;;;;;5095165;28;20073;-66
2022/03/04 03:50:06;;;;;;;22.00;17.30;;;8.90;59.20;;;;;;5095012;28;20020;-68
2022/03/04 03:52:31;;;;;;;22.15;15.85;;;8.90;59.30;;;;;;5094686;28;20548;-68
2022/03/04 03:54:57;;;;;;;20.80;16.98;;;9.00;59.20;;;;;;5094748;28;20108;-68
2022/03/04 03:57:23;;;;;;;19.48;16.52;;;9.00;59.00;;;;;;5095079;28;20051;-65
2022/03/04 03:59:48;;;;;;;18.25;15.40;;;9.00;58.90;;;;;;5094567;28;20442;-68
2022/03/04 04:02:14;;;;;;;20.15;17.40;;;9.00;59.00;;;;;;5076629;28;20020;-69
2022/03/04 04:04:41;;;;;;;20.58;16.08;;;9.00;59.00;;;;;;5094309;28;20120;-68
2022/03/04 04:07:09;;;;;;;19.58;16.30;;;9.00;59.00;;;;;;5094587;28;20024;-67
2022/03/04 04:09:35;;;;;;;21.63;16.98;;;9.00;59.00;;;;;;5094667;28;20480;-69
2022/03/04 04:12:01;;;;;;;19.08;16.95;;;8.90;59.00;;;;;;5076596;28;20119;-68
2022/03/04 04:14:27;;;;;;;19.75;16.48;;;8.90;59.10;;;;;;5094319;28;20020;-66
2022/03/04 04:16:54;;;;;;;22.27;17.13;;;8.90;59.10;;;;;;5094629;28;20020;-66
2022/03/04 04:19:20;;;;;;;22.17;16.55;;;8.80;59.10;;;;;;5094480;28;20020;-65
2022/03/04 04:21:45;;;;;;;20.65;16.38;;;8.90;59.40;;;;;;5094117;28;20069;-67
2022/03/04 04:24:11;;;;;;;20.55;16.85;;;8.80;59.20;;;;;;5094250;28;20111;-69
2022/03/04 04:26:37;;;;;;;19.85;16.40;;;8.80;60.10;;;;;;5094261;28;20035;-65
2022/03/04 04:29:03;;;;;;;23.05;16.23;;;8.70;59.50;;;;;;5094130;28;20036;-69
2022/03/04 04:31:30;;;;;;;22.42;16.48;;;8.60;59.70;;;;;;5094154;28;20020;-66
2022/03/04 04:33:55;;;;;;;46.67;19.85;;;8.60;59.70;;;;;;5094175;28;20059;-69
2022/03/04 04:36:21;;;;;;;20.10;16.73;;;8.50;60.30;;;;;;5093537;28;20120;-71
2022/03/04 04:38:46;;;;;;;18.77;16.42;;;8.30;60.60;;;;;;5094044;28;20024;-72
2022/03/04 04:41:12;;;;;;;22.75;17.25;;;8.10;60.70;;;;;;5094056;28;20027;-65
2022/03/04 04:43:38;;;;;;;18.33;15.70;;;8.00;61.10;;;;;;5093939;28;20024;-71
2022/03/04 04:46:04;;;;;;;20.35;16.30;;;8.00;60.90;;;;;;5094105;28;20095;-61
2022/03/04 04:48:30;;;;;;;20.73;16.73;;;8.10;61.00;;;;;;5094041;28;20368;-59
2022/03/04 04:50:57;;;;;;;19.17;15.38;;;8.00;60.90;;;;;;5093450;28;20464;-62
2022/03/04 04:53:23;;;;;;;20.13;16.05;;;8.00;61.00;;;;;;5093907;28;20024;-59
2022/03/04 04:55:48;;;;;;;19.60;16.52;;;8.00;61.00;;;;;;5093937;28;20026;-59
2022/03/04 04:58:14;;;;;;;19.70;15.95;;;8.00;61.00;;;;;;5093923;28;20533;-59
2022/03/04 05:00:40;;;;;;;19.30;15.43;;;8.00;60.90;;;;;;5093665;28;20024;-59
2022/03/04 05:03:06;;;;;;;17.40;15.60;;;8.00;61.10;;;;;;5093797;28;20016;-59
2022/03/04 05:05:31;;;;;;;22.70;16.85;;;8.00;61.20;;;;;;5093138;28;20019;-61
2022/03/04 05:07:57;;;;;;;18.50;15.32;;;7.90;61.10;;;;;;5093541;28;20491;-62
2022/03/04 05:10:23;;;;;;;19.50;16.10;;;7.90;61.30;;;;;;5093886;28;20102;-59
2022/03/04 05:12:48;;;;;;;18.60;15.60;;;7.90;61.30;;;;;;5093457;28;20024;-60
2022/03/04 05:15:14;;;;;;;19.05;15.98;;;7.90;62.00;;;;;;5093333;28;20039;-60
2022/03/04 05:17:39;;;;;;;19.75;16.80;;;7.80;61.40;;;;;;5092588;28;20031;-59
2022/03/04 05:20:06;;;;;;;18.52;15.77;;;7.80;61.50;;;;;;5093611;28;20024;-59
2022/03/04 05:22:32;;;;;;;21.02;17.23;;;7.70;61.70;;;;;;5093039;28;20408;-66
2022/03/04 05:24:57;;;;;;;22.90;16.73;;;7.80;61.70;;;;;;5093621;28;20453;-61
2022/03/04 05:27:23;;;;;;;20.45;17.13;;;7.80;61.70;;;;;;5093171;28;20085;-67
2022/03/04 05:29:48;;;;;;;18.85;16.58;;;7.70;61.70;;;;;;5093441;28;20077;-60
2022/03/04 05:32:14;;;;;;;19.65;16.05;;;7.70;61.70;;;;;;5093015;28;20094;-63
2022/03/04 05:34:41;;;;;;;21.67;15.30;;;7.70;61.80;;;;;;5093142;28;20067;-64
2022/03/04 05:37:06;;;;;;;18.95;15.85;;;7.70;61.90;;;;;;5092863;28;20526;-59
2022/03/04 05:39:32;;;;;;;21.15;17.00;;;7.60;61.90;;;;;;5093345;28;20028;-67
2022/03/04 05:41:58;;;;;;;18.77;16.17;;;7.60;61.80;;;;;;5093088;28;20022;-61
2022/03/04 05:44:23;;;;;;;20.90;16.20;;;7.60;62.50;;;;;;5093213;28;20046;-59
2022/03/04 05:46:49;;;;;;;19.23;16.67;;;7.60;61.70;;;;;;5092754;28;20024;-60
2022/03/04 05:49:14;;;;;;;20.30;17.05;;;7.60;61.70;;;;;;5092985;28;20047;-61
2022/03/04 05:51:40;;;;;;;19.67;17.23;;;7.60;61.80;;;;;;5093045;28;20024;-59
2022/03/04 05:54:06;;;;;;;20.08;15.90;;;7.60;62.00;;;;;;5075042;28;20050;-60
2022/03/04 05:56:31;;;;;;;21.25;16.35;;;7.60;62.10;;;;;;5093320;28;20043;-59
2022/03/04 05:58:57;;;;;;;19.50;15.82;;;7.50;62.10;;;;;;5092853;28;20472;-61
2022/03/04 06:01:22;;;;;;;18.48;15.65;;;7.50;62.30;;;;;;5085944;28;20143;-65
2022/03/04 06:03:48;;;;;;;18.67;16.38;;;7.50;62.30;;;;;;5092531;28;20024;-63
2022/03/04 06:06:14;;;;;;;19.15;16.73;;;7.50;62.20;;;;;;5091437;28;20047;-71
2022/03/04 06:08:40;;;;;;;18.83;16.83;;;7.50;62.30;;;;;;5092307;28;20508;-70
2022/03/04 06:11:10;;;;;;;20.95;17.23;;;7.50;62.40;;;;;;5093009;28;20024;-71
2022/03/04 06:13:36;;;;;;;18.83;15.63;;;7.40;62.40;;;;;;5092632;28;20032;-72
2022/03/04 06:16:03;;;;;;;23.25;17.45;;;7.40;62.50;;;;;;5092855;28;20024;-65
2022/03/04 06:18:28;;;;;;;22.35;16.85;;;7.40;62.60;;;;;;5092605;28;20057;-72
2022/03/04 06:20:54;;;;;;;20.67;16.60;;;7.40;62.60;;;;;;5092833;28;20020;-72
2022/03/04 06:23:19;;;;;;;19.30;16.35;;;7.30;62.60;;;;;;5092766;28;20032;-71
2022/03/04 06:25:45;;;;;;;20.55;16.20;;;7.30;62.60;;;;;;5092852;28;20468;-62
2022/03/04 06:28:11;;;;;;;19.02;15.55;;;7.30;62.70;;;;;;5094671;28;20040;-67
2022/03/04 06:30:36;;;;;;;22.05;16.50;;;7.30;62.70;;;;;;5096153;28;20016;-62
2022/03/04 06:35:48;;;;;;;22.92;16.33;;;7.30;62.70;;;;;;5096630;28;20130;-64
2022/03/04 06:38:14;;;;;;;22.15;15.95;;;7.30;62.80;;;;;;5096383;28;20020;-61
2022/03/04 06:40:40;;;;;;;21.50;16.50;;;7.40;63.40;;;;;;5096634;28;20586;-61
2022/03/04 06:43:07;;;;;;;19.60;15.90;;;7.30;62.70;;;;;;5096288;28;20028;-71
2022/03/04 06:45:33;;;;;;;22.85;16.08;;;7.40;62.50;;;;;;5096101;28;20024;-68
2022/03/04 06:47:59;;;;;;;19.45;16.42;;;7.40;62.70;;;;;;5091861;28;20028;-60
2022/03/04 06:50:24;;;;;;;19.08;15.38;;;7.40;62.60;;;;;;5091150;28;20119;-69
2022/03/04 06:52:53;;;;;;;19.58;15.90;;;7.40;62.70;;;;;;5091738;28;20028;-71
2022/03/04 06:55:19;;;;;;;20.20;16.30;;;7.50;62.60;;;;;;5088949;28;20068;-70
2022/03/04 06:57:46;;;;;;;21.00;16.02;;;7.40;62.70;;;;;;5095122;28;20023;-59
2022/03/04 07:00:12;;;;;;;17.50;15.60;;;7.40;62.70;;;;;;5075463;28;20574;-69
2022/03/04 07:02:38;;;;;;;17.90;15.13;;;7.40;62.70;;;;;;5075638;28;20052;-60
2022/03/04 07:05:05;;;;;;;17.80;15.90;;;7.40;62.60;;;;;;5074676;28;20056;-71
2022/03/04 07:07:31;;;;;;;19.73;16.40;;;7.40;62.60;;;;;;5087366;28;20073;-72
2022/03/04 07:09:56;;;;;;;19.80;16.15;;;7.50;62.70;;;;;;5095702;28;20384;-69
2022/03/04 07:12:22;;;;;;;20.40;15.73;;;7.60;62.80;;;;;;5095929;28;20032;-61
2022/03/04 07:14:48;;;;;;;21.55;16.38;;;7.80;64.30;;;;;;5094794;28;20129;-62
2022/03/04 07:17:14;;;;;;;20.20;15.40;;;7.90;62.10;;;;;;5095493;28;20030;-65
2022/03/04 07:19:40;;;;;;;19.98;16.17;;;7.90;61.80;;;;;;5095674;28;20024;-67
2022/03/04 07:22:06;;;;;;;20.77;16.75;;;7.90;61.70;;;;;;5094803;28;20473;-67
2022/03/04 07:24:31;;;;;;;20.83;16.33;;;7.90;61.80;;;;;;5095480;28;20032;-68
2022/03/04 07:26:58;;;;;;;19.58;15.93;;;7.90;62.20;;;;;;5095518;28;20103;-66
2022/03/04 07:29:24;;;;;;;23.80;16.55;;;7.90;62.00;;;;;;5095179;28;20032;-68
2022/03/04 07:31:53;;;;;;;21.90;16.80;;;7.90;62.20;;;;;;5092210;28;20020;-64
2022/03/04 07:34:22;;;;;;;24.80;17.30;;;8.00;62.20;;;;;;5092510;28;20077;-61
2022/03/04 07:36:48;;;;;;;20.90;16.63;;;8.00;61.90;;;;;;5094168;28;20043;-65
2022/03/04 07:39:14;;;;;;;23.05;16.67;;;8.00;62.00;;;;;;5093726;28;20027;-61
2022/03/04 07:41:40;;;;;;;21.67;16.52;;;8.10;62.00;;;;;;5094219;28;20373;-61
2022/03/04 07:44:06;;;;;;;17.83;15.90;;;8.20;61.80;;;;;;5088107;28;20029;-61
2022/03/04 07:46:31;;;;;;;21.38;15.90;;;8.20;61.50;;;;;;5074716;28;20127;-63
2022/03/04 07:48:57;;;;;;;21.35;15.60;;;8.30;61.50;;;;;;5076234;28;20064;-60
2022/03/04 07:51:23;;;;;;;21.10;16.48;;;8.20;61.30;;;;;;5093479;28;20439;-65
2022/03/04 07:53:48;;;;;;;21.77;16.77;;;8.30;61.20;;;;;;5091412;28;20501;-60
2022/03/04 07:56:14;;;;;;;22.45;16.65;;;8.30;61.20;;;;;;5070608;28;20016;-60
2022/03/04 07:58:40;;;;;;;21.77;16.83;;;8.30;61.50;;;;;;5090779;28;20028;-59
2022/03/04 08:01:05;;;;;;;20.60;16.13;;;8.30;61.30;;;;;;5093291;28;20016;-63
2022/03/04 08:03:31;;;;;;;24.20;16.60;;;8.30;61.80;;;;;;5094356;28;20513;-60
2022/03/04 08:05:57;;;;;;;43.10;17.23;;;8.30;61.40;;;;;;5094036;28;20074;-61
2022/03/04 08:08:23;;;;;;;21.45;15.45;;;8.40;61.10;;;;;;5093782;28;20435;-64
2022/03/04 08:10:48;;;;;;;22.15;16.33;;;8.40;62.50;;;;;;5087021;28;20024;-67
2022/03/04 08:13:14;;;;;;;19.88;16.55;;;8.50;61.40;;;;;;5094010;28;20028;-68
2022/03/04 08:15:40;;;;;;;21.63;16.02;;;8.50;61.30;;;;;;5093403;28;20028;-66
2022/03/04 08:18:06;;;;;;;25.95;16.00;;;8.50;61.70;;;;;;5091338;28;20040;-67
2022/03/04 08:20:32;;;;;;;24.35;15.65;;;8.60;61.90;;;;;;5091432;28;20042;-65
2022/03/04 08:22:58;;;;;;;19.80;15.32;;;8.60;61.70;;;;;;5089374;28;20026;-66
2022/03/04 08:25:24;;;;;;;20.58;15.10;;;8.60;61.60;;;;;;5089192;28;20111;-68
2022/03/04 08:27:51;;;;;;;21.55;15.05;;;8.70;61.20;;;;;;5090027;28;20132;-62
2022/03/04 08:30:16;;;;;;;20.90;15.68;;;8.70;60.40;;;;;;5090426;28;20039;-61
2022/03/04 08:32:42;;;;;;;19.80;16.05;;;8.70;60.20;;;;;;5087527;28;20028;-63
2022/03/04 08:35:09;;;;;;;22.50;16.27;;;8.80;60.60;;;;;;5089328;28;20032;-61
2022/03/04 08:37:35;;;;;;;24.23;16.10;;;8.80;60.50;;;;;;5091853;28;20028;-64
2022/03/04 08:40:02;;;;;;;21.48;15.75;;;8.80;60.20;;;;;;5066092;28;20028;-63
2022/03/04 08:42:29;;;;;;;23.02;15.95;;;8.80;60.30;;;;;;5083049;28;20024;-61
2022/03/04 08:44:54;;;;;;;23.70;15.85;;;8.80;60.60;;;;;;5077158;28;20107;-66
2022/03/04 08:47:21;;;;;;;22.08;16.25;;;8.80;60.60;;;;;;5093870;28;20056;-67
2022/03/04 08:49:46;;;;;;;16.85;14.32;;;8.90;60.70;;;;;;5093308;28;20111;-61
2022/03/04 08:52:12;;;;;;;22.50;16.23;;;8.90;60.60;;;;;;5087627;28;20162;-62
2022/03/04 08:54:38;;;;;;;21.35;14.63;;;8.90;61.00;;;;;;5093898;28;20028;-63
2022/03/04 08:57:04;;;;;;;20.75;15.75;;;8.90;60.70;;;;;;5068636;28;20564;-68
2022/03/04 08:59:30;;;;;;;21.58;15.27;;;9.00;60.60;;;;;;5081764;28;20020;-61
2022/03/04 09:01:56;;;;;;;22.00;15.98;;;9.00;60.90;;;;;;5078340;28;20061;-67
2022/03/04 09:04:22;;;;;;;17.40;14.00;;;9.00;60.90;;;;;;5090717;28;20052;-61
2022/03/04 09:06:48;;;;;;;17.73;13.65;;;9.00;61.30;;;;;;5090727;28;20547;-66
2022/03/04 09:09:14;;;;;;;20.25;14.23;;;9.00;61.90;;;;;;5078966;28;20178;-65
2022/03/04 09:11:39;;;;;;;17.55;12.95;;;9.10;61.30;;;;;;5083332;28;20043;-61
2022/03/04 09:14:06;;;;;;;20.63;14.98;;;9.10;61.80;;;;;;5088942;28;20032;-62
2022/03/04 09:16:31;;;;;;;17.90;14.27;;;9.20;60.40;;;;;;5078368;28;20020;-60
2022/03/04 09:18:57;;;;;;;17.45;14.45;;;9.30;60.20;;;;;;5061633;28;20028;-62
2022/03/04 09:21:22;;;;;;;22.40;15.00;;;9.30;60.20;;;;;;5088839;28;20036;-67
2022/03/04 09:23:48;;;;;;;20.67;15.80;;;9.30;59.70;;;;;;5086889;28;20036;-62
2022/03/04 09:26:14;;;;;;;20.70;14.35;;;9.40;59.60;;;;;;5084078;28;20020;-60
2022/03/04 09:28:40;;;;;;;25.90;15.32;;;9.40;59.40;;;;;;5084530;28;20127;-66
2022/03/04 09:31:06;;;;;;;22.98;14.68;;;9.40;58.60;;;;;;5091742;28;20070;-62
2022/03/04 09:33:32;;;;;;;19.52;14.55;;;9.40;58.80;;;;;;5088268;28;20039;-61
2022/03/04 09:35:57;;;;;;;20.92;14.82;;;9.40;58.50;;;;;;5085746;28;20028;-64
2022/03/04 09:38:24;;;;;;;18.35;14.00;;;9.40;58.70;;;;;;5074667;28;20097;-64
2022/03/04 09:40:50;;;;;;;17.13;13.90;;;9.40;58.90;;;;;;5075831;28;20020;-62
2022/03/04 09:43:18;;;;;;;21.27;14.73;;;9.40;59.00;;;;;;5085442;28;20043;-68
2022/03/04 09:45:48;;;;;;;22.67;14.48;;;9.50;58.90;;;;;;5074338;28;20032;-68
2022/03/04 09:48:16;;;;;;;19.15;13.80;;;9.50;58.90;;;;;;5080670;28;20524;-67
2022/03/04 09:50:44;;;;;;;18.95;14.05;;;9.50;59.00;;;;;;5075691;28;20028;-66
2022/03/04 09:53:11;;;;;;;15.43;11.38;;;9.60;58.90;;;;;;5089072;28;20032;-74
2022/03/04 09:55:41;;;;;;;17.95;11.63;;;9.80;62.80;;;;;;5085371;28;20036;-70
2022/03/04 09:58:18;;;;;;;16.02;12.60;;;10.30;61.20;;;;;;5089251;28;20078;-74
2022/03/04 10:00:46;;;;;;;16.42;11.35;;;10.60;59.30;;;;;;5077896;28;20107;-65
2022/03/04 10:03:29;;;;;;;15.60;8.02;;;11.00;59.60;;;;;;5082054;28;20021;-68
2022/03/04 10:05:57;;;;;;;15.40;10.82;;;11.40;63.40;;;;;;5081306;28;20028;-73
2022/03/04 10:08:23;;;;;;;17.48;11.07;;;11.40;59.90;;;;;;5076347;28;20127;-74
2022/03/04 10:10:58;;;;;;;20.63;12.50;;;11.50;58.30;;;;;;5058820;28;20036;-75
2022/03/04 10:13:54;;;;;;;14.40;12.25;;;11.50;57.30;;;;;;5058481;28;20016;-74
2022/03/04 10:16:26;;;;;;;17.63;12.52;;;11.70;55.80;;;;;;5063602;28;20043;-72
2022/03/04 10:19:04;;;;;;;19.17;12.60;;;11.90;54.00;;;;;;5089955;28;20354;-74
2022/03/04 10:22:00;;;;;;;15.52;13.35;;;12.10;54.00;;;;;;5080796;28;20037;-68
2022/03/04 10:24:29;;;;;;;14.00;12.52;;;12.40;53.20;;;;;;5074760;28;20377;-68
2022/03/04 10:27:13;;;;;;;16.17;13.20;;;12.40;52.80;;;;;;5088616;28;20477;-64
2022/03/04 10:29:41;;;;;;;37.08;13.98;;;12.70;53.40;;;;;;5084608;28;20480;-61
2022/03/04 10:32:16;;;;;;;17.88;14.05;;;12.40;54.70;;;;;;5080425;28;20044;-67
2022/03/04 10:34:44;;;;;;;18.02;14.23;;;12.20;52.80;;;;;;5082622;28;20039;-67
2022/03/04 10:37:11;;;;;;;17.75;14.00;;;11.80;52.60;;;;;;5089370;28;20025;-66
2022/03/04 10:39:37;;;;;;;19.17;15.23;;;11.60;53.50;;;;;;5082828;28;20021;-69
2022/03/04 10:42:03;;;;;;;21.77;14.65;;;11.40;53.70;;;;;;5094721;28;20078;-69
2022/03/04 10:44:29;;;;;;;19.45;13.95;;;11.30;54.30;;;;;;5094688;28;20020;-69
2022/03/04 10:46:57;;;;;;;18.98;15.45;;;11.20;55.00;;;;;;5087234;28;20028;-69
2022/03/04 10:49:27;;;;;;;20.27;14.77;;;11.10;55.30;;;;;;5082472;28;20036;-68
2022/03/04 10:52:05;;;;;;;16.85;13.48;;;11.10;54.30;;;;;;5093159;28;20069;-69
2022/03/04 10:54:31;;;;;;;21.02;14.13;;;11.10;54.10;;;;;;5093182;28;20404;-66
2022/03/04 10:56:57;;;;;;;18.15;14.02;;;11.00;54.30;;;;;;5088697;28;20035;-71
2022/03/04 10:59:23;;;;;;;19.05;13.80;;;11.00;54.00;;;;;;5085136;28;20016;-64
2022/03/04 11:01:50;;;;;;;18.55;13.68;;;11.00;53.80;;;;;;5093708;28;20077;-68
2022/03/04 11:04:19;;;;;;;19.48;13.52;;;11.00;54.00;;;;;;5086965;28;20028;-69
2022/03/04 11:06:47;;;;;;;18.70;14.38;;;11.00;54.20;;;;;;5092338;28;20476;-64
2022/03/04 11:09:23;;;;;;;17.90;13.82;;;11.00;54.60;;;;;;5073853;28;20028;-63
2022/03/04 11:11:51;;;;;;;22.65;15.32;;;11.00;55.20;;;;;;5091737;28;20020;-63
2022/03/04 11:14:19;;;;;;;17.63;13.93;;;11.00;55.20;;;;;;5081821;28;20092;-64
2022/03/04 11:16:46;;;;;;;20.38;15.70;;;11.00;54.40;;;;;;5092711;28;20034;-69
2022/03/04 11:19:12;;;;;;;18.75;14.70;;;11.00;54.90;;;;;;5085300;28;20107;-69
2022/03/04 11:21:38;;;;;;;20.70;14.25;;;11.00;55.10;;;;;;5093793;28;20490;-66
2022/03/04 11:24:04;;;;;;;21.42;15.68;;;11.00;54.90;;;;;;5092476;28;20032;-68
2022/03/04 11:26:31;;;;;;;21.35;16.00;;;11.10;54.50;;;;;;5074011;28;20020;-68
2022/03/04 11:28:59;;;;;;;20.33;15.60;;;11.10;54.90;;;;;;5088838;28;20081;-64
2022/03/04 11:31:27;;;;;;;18.88;16.35;;;11.10;55.40;;;;;;5073031;28;20025;-67
2022/03/04 11:33:57;;;;;;;17.63;14.52;;;11.10;55.10;;;;;;5091336;28;20032;-69
2022/03/04 11:36:32;;;;;;;19.17;16.08;;;11.10;55.90;;;;;;5092286;28;20062;-68
2022/03/04 11:39:03;;;;;;;19.52;15.60;;;11.10;55.80;;;;;;5086877;28;20395;-69
2022/03/04 11:41:36;;;;;;;24.02;16.23;;;11.20;55.40;;;;;;5089624;28;20030;-71
2022/03/04 11:44:08;;;;;;;19.88;16.23;;;11.20;55.70;;;;;;5090806;28;20059;-70
2022/03/04 11:46:59;;;;;;;22.90;16.38;;;11.20;55.80;;;;;;5090400;28;20078;-69
2022/03/04 11:49:31;;;;;;;18.55;15.05;;;11.20;56.30;;;;;;5088395;28;20032;-68
2022/03/04 11:52:12;;;;;;;19.00;16.00;;;11.20;56.20;;;;;;5069705;28;20400;-69
2022/03/04 11:54:41;;;;;;;18.60;15.90;;;11.20;56.20;;;;;;5089191;28;20036;-69
2022/03/04 11:57:20;;;;;;;20.67;15.90;;;11.30;56.20;;;;;;5085126;28;20073;-71
2022/03/04 12:00:08;;;;;;;18.95;16.17;;;11.30;56.00;;;;;;5085926;28;20123;-61
2022/03/04 12:02:54;;;;;;;15.93;13.68;;;11.40;55.40;;;;;;5083518;28;20040;-73
2022/03/04 12:05:22;;;;;;;17.60;13.88;;;11.40;57.50;;;;;;5090271;28;20023;-61
2022/03/04 12:07:50;;;;;;;21.27;17.08;;;11.40;60.30;;;;;;5083153;28;20073;-66
2022/03/04 12:10:19;;;;;;;20.17;15.70;;;11.40;56.80;;;;;;5091578;28;20081;-63
2022/03/04 12:13:05;;;;;;;20.92;15.70;;;11.40;56.10;;;;;;5090996;28;20083;-65
2022/03/04 12:15:38;;;;;;;19.80;16.02;;;11.50;56.60;;;;;;5090219;28;20427;-64
2022/03/04 12:18:06;;;;;;;;;;;11.50;56.50;;;;;;5088298;28;20510;-65
2022/03/04 12:20:40;;;;;;;22.77;16.65;;;11.50;56.70;;;;;;5086119;28;19912;-69
2022/03/04 12:23:12;;;;;;;21.17;16.25;;;11.50;56.90;;;;;;5088433;28;20021;-73
2022/03/04 12:25:56;;;;;;;23.00;17.17;;;11.60;56.20;;;;;;5090274;28;20052;-65
2022/03/04 12:28:35;;;;;;;14.88;11.95;;;11.60;56.90;;;;;;5079262;28;20036;-74
2022/03/04 12:31:01;;;;;;;21.08;15.93;;;11.60;60.20;;;;;;5088881;28;20024;-63
2022/03/04 12:33:29;;;;;;;18.73;15.00;;;11.70;57.10;;;;;;5090630;28;20038;-74
2022/03/04 12:35:59;;;;;;;18.15;12.00;;;11.70;58.20;;;;;;5088434;28;20046;-73